Hovedside
METAR-TAF:

METAR-TAF

Lufthavner :

Ulan Bator, Mongolia

Djengis Khan internasjonale lufthavn

breddegrad: 47-55N, lengdegrad: 106-52E, høyde over havet: 1306 m

Gjeldene værobservasjon

Denne rapporten ble laget for 27 minutter siden, klokken 19:00 UTC
Flau vind
Temperatur -30°C
Luftfuktighet 68%
Trykk 1015 hPa
Sikt: 8000 m

METAR: ZMUB 191900Z 00000MPS 8000NW NSC M30/M34 Q1015 NOSIG RMK QFE654.1 64 NT

Tid: 03:27 (19:27 UTC)

Varsel

Denne rapporten ble laget for 2 timer og 47 minutter siden, klokken 16:40 UTC
Varsel gyldig fra 19. klokken 18 UTC til 20. klokken 24 UTC
Vind 4 kt fra skiftende retning
Sikt: 6000 m
Spredte skyer i en høyde av 10000 ft
Blir
fra 20. klokken 00 UTC til 20. klokken 02 UTC
Sikt: 3000 m
røyk
Blir
fra 20. klokken 05 UTC til 20. klokken 07 UTC
Sikt: 6000 m

TAF: ZMUB 191640Z 1918/2024 VRB02MPS 6000 SCT100 TNM34/1922Z TXM21/2007Z BECMG 2000/2002 3000 FU BECMG 2005/2007 6000

Værobservasjoner og værvarsel for over 4000 flyplasser (METAR- og TAF-rapporter).

Tilgjengelige stasjoner er representert av de røde og gule prikkene på kartet.

Hold musepekeren over prikken for å se navnet på stasjonen.

Klikk så for å se værobservasjoner og -varsler.

For å forandre kartet kan du klikke på den grønne knappen med svart kryss for å zoome inn, på den grønne knappen med strek for å zoome ut, eller på de grønne pilene for å se tilstøtende kart.


METAR-TAF: